Aviation Digital Data Service (ADDS)

Output produced by METARs form (1338 UTC 25 February 2018)
found at http://aviationweather.gov/adds/metars/
 
KNEW 251301Z AUTO 33009KT 2 1/2SM BR BKN020 BKN070 OVC110 21/21 A3007 RMK AO2 T02110206